createdAt,value
2023-01-01T00:02:56.664Z,92.47
2023-01-01T00:08:18.429Z,66.22
2023-01-01T00:13:41.965Z,56.03
2023-01-01T00:19:04.235Z,72.80
2023-01-01T00:24:25.968Z,55.42
2023-01-01T00:29:47.764Z,47.85
2023-01-01T00:35:09.806Z,44.60
2023-01-01T00:40:31.592Z,38.70
2023-01-01T00:45:53.311Z,29.75
2023-01-01T00:51:15.058Z,22.67
2023-01-01T00:56:36.820Z,21.33
2023-01-01T01:01:58.832Z,20.65
2023-01-01T01:07:20.768Z,16.85
2023-01-01T01:12:42.885Z,16.15
2023-01-01T01:18:04.636Z,17.02
2023-01-01T01:23:26.341Z,15.30
2023-01-01T01:28:50.030Z,15.88
2023-01-01T01:34:16.035Z,13.85
2023-01-01T01:39:38.890Z,16.52
2023-01-01T01:45:02.185Z,15.63
2023-01-01T01:50:36.017Z,16.50
2023-01-01T01:56:00.998Z,22.27
2023-01-01T02:01:23.458Z,22.02
2023-01-01T02:06:45.575Z,19.98
2023-01-01T02:12:07.364Z,21.02
2023-01-01T02:17:39.838Z,18.58
2023-01-01T02:23:31.580Z,20.30
2023-01-01T02:29:04.945Z,14.52
2023-01-01T02:34:32.029Z,19.38
2023-01-01T02:39:59.200Z,19.08
2023-01-01T02:45:21.890Z,22.20
2023-01-01T02:50:43.773Z,15.20
2023-01-01T02:56:10.672Z,13.13
2023-01-01T03:01:48.989Z,15.10
2023-01-01T03:07:18.224Z,14.18
2023-01-01T03:12:53.381Z,10.25
2023-01-01T03:18:21.638Z,11.88
2023-01-01T03:23:50.125Z,10.27
2023-01-01T03:29:13.175Z,10.23
2023-01-01T03:34:42.931Z,9.25
2023-01-01T03:40:05.799Z,10.63
2023-01-01T03:45:38.924Z,8.85
2023-01-01T03:51:18.408Z,11.13
2023-01-01T03:56:52.609Z,14.82
2023-01-01T04:02:20.239Z,10.68
2023-01-01T04:13:05.728Z,7.93
2023-01-01T04:18:27.393Z,9.38
2023-01-01T04:23:49.097Z,12.88
2023-01-01T04:29:10.866Z,10.48
2023-01-01T04:34:32.550Z,11.80
2023-01-01T04:39:54.223Z,9.63
2023-01-01T04:45:15.949Z,9.13
2023-01-01T04:50:37.629Z,9.65
2023-01-01T04:56:07.777Z,8.25
2023-01-01T05:01:30.569Z,7.57
2023-01-01T05:06:52.434Z,11.70
2023-01-01T05:12:14.117Z,7.38
2023-01-01T05:17:35.828Z,6.47
2023-01-01T05:22:57.520Z,7.70
2023-01-01T05:28:19.218Z,8.85
2023-01-01T05:33:41.561Z,10.05
2023-01-01T05:39:03.410Z,5.35
2023-01-01T05:44:25.076Z,5.88
2023-01-01T05:49:46.792Z,7.38
2023-01-01T05:55:08.699Z,8.10
2023-01-01T06:00:30.485Z,7.50
2023-01-01T06:05:52.208Z,7.82
2023-01-01T06:11:13.893Z,6.53
2023-01-01T06:16:35.661Z,6.18
2023-01-01T06:21:57.464Z,6.22
2023-01-01T06:27:19.193Z,5.70
2023-01-01T06:32:40.913Z,8.77
2023-01-01T06:38:02.601Z,7.47
2023-01-01T06:43:24.729Z,4.15
2023-01-01T06:48:52.885Z,5.97
2023-01-01T06:54:14.603Z,7.35
2023-01-01T06:59:36.285Z,6.60
2023-01-01T07:04:57.981Z,6.97
2023-01-01T07:10:19.666Z,6.30
2023-01-01T07:15:41.504Z,5.10
2023-01-01T07:21:04.443Z,5.50
2023-01-01T07:26:27.453Z,6.63
2023-01-01T07:31:49.196Z,7.63
2023-01-01T07:37:10.909Z,5.88
2023-01-01T07:42:32.596Z,7.43
2023-01-01T07:47:56.189Z,7.25
2023-01-01T07:53:17.933Z,6.57
2023-01-01T07:58:40.875Z,6.38
2023-01-01T08:04:03.128Z,8.25
2023-01-01T08:09:24.835Z,7.50
2023-01-01T08:14:46.851Z,5.57
2023-01-01T08:20:09.392Z,5.38
2023-01-01T08:25:31.079Z,4.60
2023-01-01T08:30:54.877Z,5.78
2023-01-01T08:36:16.958Z,7.88
2023-01-01T08:41:38.630Z,5.28
2023-01-01T08:47:00.387Z,4.93
2023-01-01T08:52:22.703Z,5.65
2023-01-01T08:57:44.421Z,7.63
2023-01-01T09:03:06.298Z,7.13
2023-01-01T09:08:28.390Z,4.75
2023-01-01T09:13:51.029Z,5.53
2023-01-01T09:19:13.262Z,7.30
2023-01-01T09:24:34.923Z,6.93
2023-01-01T09:29:56.673Z,5.88
2023-01-01T09:35:18.836Z,8.85
2023-01-01T09:40:55.348Z,6.93
2023-01-01T09:46:17.420Z,8.70
2023-01-01T09:51:48.905Z,5.57
2023-01-01T09:57:19.873Z,6.53
2023-01-01T10:02:57.863Z,5.78
2023-01-01T10:08:24.834Z,6.10
2023-01-01T10:13:46.917Z,6.28
2023-01-01T10:19:24.783Z,6.70
2023-01-01T10:24:56.186Z,7.90
2023-01-01T10:30:21.019Z,7.25
2023-01-01T10:35:56.796Z,5.63
2023-01-01T10:41:20.193Z,6.32
2023-01-01T10:46:47.733Z,5.68
2023-01-01T10:52:15.407Z,3.60
2023-01-01T10:57:38.732Z,6.80
2023-01-01T11:03:21.059Z,6.20
2023-01-01T11:08:49.080Z,6.05
2023-01-01T11:14:25.363Z,8.65
2023-01-01T11:19:52.687Z,5.88
2023-01-01T11:25:22.087Z,6.75
2023-01-01T11:31:03.803Z,4.38
2023-01-01T11:36:34.761Z,4.55
2023-01-01T11:41:57.933Z,5.65
2023-01-01T11:47:28.900Z,5.07
2023-01-01T11:52:52.691Z,6.05
2023-01-01T11:58:36.051Z,6.80
2023-01-01T12:04:11.390Z,6.00
2023-01-01T12:09:39.088Z,5.60
2023-01-01T12:15:05.504Z,5.68
2023-01-01T12:20:34.190Z,7.68
2023-01-01T12:26:34.300Z,5.88
2023-01-01T12:32:11.849Z,6.65
2023-01-01T12:37:47.168Z,6.57
2023-01-01T12:43:11.046Z,5.00
2023-01-01T12:48:51.611Z,6.28
2023-01-01T12:54:47.362Z,6.57
2023-01-01T13:00:16.118Z,5.82
2023-01-01T13:05:41.859Z,6.25
2023-01-01T13:11:05.644Z,6.85
2023-01-01T13:16:37.427Z,6.55
2023-01-01T13:22:20.203Z,5.15
2023-01-01T13:28:00.587Z,5.03
2023-01-01T13:33:32.023Z,3.33
2023-01-01T13:38:58.714Z,6.82
2023-01-01T13:44:23.829Z,8.93
2023-01-01T13:50:12.046Z,6.70
2023-01-01T13:55:45.636Z,6.60
2023-01-01T14:01:14.640Z,7.57
2023-01-01T14:06:40.274Z,7.43
2023-01-01T14:12:19.260Z,8.07
2023-01-01T14:17:42.869Z,7.82
2023-01-01T14:23:10.552Z,7.03
2023-01-01T14:28:35.120Z,7.03
2023-01-01T14:33:57.627Z,5.47
2023-01-01T14:39:35.484Z,10.88
2023-01-01T14:44:57.240Z,8.60
2023-01-01T14:50:26.637Z,8.60
2023-01-01T14:55:49.631Z,7.20
2023-01-01T15:01:23.285Z,6.65
2023-01-01T15:06:45.107Z,5.90
2023-01-01T15:12:12.159Z,9.68
2023-01-01T15:17:46.113Z,8.23
2023-01-01T15:23:15.878Z,7.22
2023-01-01T15:28:38.405Z,10.65
2023-01-01T15:34:00.261Z,7.20
2023-01-01T15:39:22.558Z,10.02
2023-01-01T15:44:44.415Z,10.75
2023-01-01T15:50:08.673Z,10.30
2023-01-01T15:55:33.800Z,12.15
2023-01-01T16:00:59.006Z,13.23
2023-01-01T16:06:22.872Z,11.52
2023-01-01T16:11:45.705Z,11.07
2023-01-01T16:17:13.595Z,9.45
2023-01-01T16:22:36.890Z,12.27
2023-01-01T16:27:59.003Z,7.32
2023-01-01T16:33:24.317Z,15.63
2023-01-01T16:38:46.049Z,10.80
2023-01-01T16:44:13.088Z,14.48
2023-01-01T16:49:34.957Z,11.82
2023-01-01T16:54:56.706Z,15.10
2023-01-01T17:00:18.526Z,13.27
2023-01-01T17:05:44.326Z,16.08
2023-01-01T17:11:11.826Z,11.00
2023-01-01T17:16:39.211Z,10.27
2023-01-01T17:22:01.739Z,14.48
2023-01-01T17:27:23.420Z,12.05
2023-01-01T17:32:45.095Z,14.98
2023-01-01T17:38:06.809Z,11.48
2023-01-01T17:43:31.408Z,9.85
2023-01-01T17:48:53.162Z,12.90
2023-01-01T17:54:14.892Z,16.23
2023-01-01T17:59:36.580Z,11.75
2023-01-01T18:04:58.260Z,11.02
2023-01-01T18:10:19.973Z,11.52
2023-01-01T18:15:41.721Z,16.05
2023-01-01T18:21:05.389Z,13.38
2023-01-01T18:26:30.463Z,12.52
2023-01-01T18:31:52.175Z,19.25
2023-01-01T18:37:14.201Z,25.95
2023-01-01T18:42:52.304Z,17.98
2023-01-01T18:48:17.553Z,11.65
2023-01-01T18:53:39.268Z,10.18
2023-01-01T18:59:01.165Z,8.80
2023-01-01T19:04:22.889Z,12.80
2023-01-01T19:09:44.670Z,12.10
2023-01-01T19:15:18.885Z,11.40
2023-01-01T19:20:40.603Z,12.20
2023-01-01T19:26:04.241Z,12.38
2023-01-01T19:31:26.060Z,8.23
2023-01-01T19:36:48.391Z,5.93
2023-01-01T19:42:11.570Z,7.72
2023-01-01T19:47:38.143Z,7.53
2023-01-01T19:53:00.045Z,8.13
2023-01-01T19:58:22.961Z,6.40
2023-01-01T20:04:00.433Z,3.78
2023-01-01T20:09:22.510Z,6.07
2023-01-01T20:14:44.210Z,5.53
2023-01-01T20:20:06.580Z,4.45
2023-01-01T20:25:28.356Z,8.18
2023-01-01T20:30:50.040Z,5.68
2023-01-01T20:36:30.777Z,5.13
2023-01-01T20:41:52.619Z,5.97
2023-01-01T20:47:14.715Z,3.33
2023-01-01T20:52:36.527Z,5.55
2023-01-01T20:57:58.260Z,3.67
2023-01-01T21:03:20.092Z,4.30
2023-01-01T21:08:41.977Z,3.65
2023-01-01T21:14:03.933Z,3.70
2023-01-01T21:19:27.275Z,2.55
2023-01-01T21:24:54.102Z,3.40
2023-01-01T21:30:17.637Z,4.57
2023-01-01T21:35:39.365Z,2.85
2023-01-01T21:41:03.539Z,2.83
2023-01-01T21:46:32.050Z,2.78
2023-01-01T21:52:00.823Z,2.85
2023-01-01T21:57:24.165Z,4.80
2023-01-01T22:02:47.149Z,4.47
2023-01-01T22:08:25.247Z,7.03
2023-01-01T22:13:47.039Z,2.90
2023-01-01T22:19:12.430Z,4.05
2023-01-01T22:24:35.331Z,10.30
2023-01-01T22:30:09.814Z,3.40
2023-01-01T22:35:32.809Z,4.30
2023-01-01T22:40:54.493Z,3.63
2023-01-01T22:46:19.057Z,2.83
2023-01-01T22:51:42.713Z,2.83
2023-01-01T22:57:04.428Z,2.60
2023-01-01T23:02:26.200Z,3.35
2023-01-01T23:07:48.187Z,3.33
2023-01-01T23:13:28.533Z,3.78
2023-01-01T23:18:50.248Z,2.22
2023-01-01T23:24:16.736Z,2.03
2023-01-01T23:29:39.056Z,2.20
2023-01-01T23:35:00.843Z,5.18
2023-01-01T23:40:22.555Z,3.17
2023-01-01T23:45:44.978Z,5.05
2023-01-01T23:51:06.691Z,4.72
2023-01-01T23:56:29.421Z,5.70
